createdAt,value
2022-10-11T00:01:01.619Z,93.86
2022-10-11T00:03:36.299Z,93.93
2022-10-11T00:06:06.504Z,94.01
2022-10-11T00:08:35.835Z,94.04
2022-10-11T00:11:06.476Z,94.11
2022-10-11T00:13:34.892Z,94.09
2022-10-11T00:16:10.245Z,93.87
2022-10-11T00:18:39.069Z,93.76
2022-10-11T00:21:13.923Z,93.80
2022-10-11T00:23:43.064Z,93.74
2022-10-11T00:26:12.186Z,93.73
2022-10-11T00:28:41.107Z,93.73
2022-10-11T00:31:11.712Z,93.77
2022-10-11T00:33:40.187Z,93.90
2022-10-11T00:36:09.423Z,94.21
2022-10-11T00:38:37.613Z,94.42
2022-10-11T00:41:05.778Z,94.45
2022-10-11T00:43:34.339Z,94.48
2022-10-11T00:46:13.466Z,94.52
2022-10-11T00:48:49.274Z,94.71
2022-10-11T00:51:24.620Z,94.73
2022-10-11T00:53:53.748Z,94.63
2022-10-11T00:56:28.178Z,94.66
2022-10-11T00:58:57.873Z,94.56
2022-10-11T01:01:26.741Z,94.64
2022-10-11T01:03:56.045Z,95.01
2022-10-11T01:06:24.218Z,95.20
2022-10-11T01:08:53.259Z,95.47
2022-10-11T01:11:25.105Z,95.50
2022-10-11T01:14:14.723Z,95.64
2022-10-11T01:16:52.856Z,95.66
2022-10-11T01:19:53.605Z,95.64
2022-10-11T01:22:27.675Z,95.55
2022-10-11T01:25:08.016Z,95.59
2022-10-11T01:28:20.776Z,95.83
2022-10-11T01:30:50.945Z,95.85
2022-10-11T01:33:19.081Z,95.78
2022-10-11T01:36:08.701Z,95.72
2022-10-11T01:38:52.720Z,95.78
2022-10-11T01:41:30.259Z,95.83
2022-10-11T01:44:01.342Z,95.83
2022-10-11T01:46:31.061Z,95.86
2022-10-11T01:49:01.581Z,95.94
2022-10-11T01:51:45.205Z,96.01
2022-10-11T01:55:08.035Z,95.96
2022-10-11T01:58:20.730Z,96.01
2022-10-11T02:01:29.206Z,96.04
2022-10-11T02:04:06.801Z,96.04
2022-10-11T02:06:46.564Z,96.17
2022-10-11T02:09:35.775Z,96.30
2022-10-11T02:12:09.448Z,96.78
2022-10-11T02:14:42.413Z,97.04
2022-10-11T02:17:18.655Z,96.96
2022-10-11T02:19:53.211Z,97.05
2022-10-11T02:22:32.227Z,97.02
2022-10-11T02:25:05.497Z,97.05
2022-10-11T02:27:38.220Z,97.25
2022-10-11T02:30:07.704Z,97.30
2022-10-11T02:32:40.824Z,97.38
2022-10-11T02:35:10.249Z,97.41
2022-10-11T02:37:58.553Z,97.22
2022-10-11T02:40:33.466Z,97.16
2022-10-11T02:43:19.720Z,97.18
2022-10-11T02:45:55.898Z,97.15
2022-10-11T02:48:27.536Z,97.18
2022-10-11T02:50:57.444Z,97.16
2022-10-11T02:53:26.985Z,97.12
2022-10-11T02:55:55.700Z,97.00
2022-10-11T02:58:24.790Z,96.85
2022-10-11T03:00:52.899Z,96.83
2022-10-11T03:03:20.965Z,96.78
2022-10-11T03:05:49.468Z,96.74
2022-10-11T03:08:18.141Z,96.76
2022-10-11T03:10:46.368Z,96.75
2022-10-11T03:13:18.121Z,96.84
2022-10-11T03:16:02.909Z,96.86
2022-10-11T03:18:31.943Z,96.83
2022-10-11T03:21:00.103Z,96.77
2022-10-11T03:23:28.302Z,96.71
2022-10-11T03:25:56.666Z,96.60
2022-10-11T03:28:24.923Z,96.69
2022-10-11T03:30:53.218Z,96.54
2022-10-11T03:33:21.472Z,96.58
2022-10-11T03:35:50.159Z,96.55
2022-10-11T03:38:21.449Z,96.57
2022-10-11T03:40:49.812Z,96.62
2022-10-11T03:43:18.073Z,96.65
2022-10-11T03:45:46.511Z,96.87
2022-10-11T03:48:14.627Z,97.04
2022-10-11T03:50:42.635Z,97.05
2022-10-11T03:53:11.004Z,97.06
2022-10-11T03:55:40.379Z,97.09
2022-10-11T03:58:09.306Z,97.18
2022-10-11T04:00:37.521Z,97.17
2022-10-11T04:03:05.532Z,97.22
2022-10-11T04:05:33.743Z,97.27
2022-10-11T04:08:01.822Z,97.33
2022-10-11T04:10:31.192Z,97.24
2022-10-11T04:12:59.351Z,97.26
2022-10-11T04:15:27.549Z,97.20
2022-10-11T04:17:55.738Z,97.25
2022-10-11T04:20:23.820Z,97.35
2022-10-11T04:22:51.814Z,97.52
2022-10-11T04:25:19.989Z,97.49
2022-10-11T04:27:48.619Z,97.57
2022-10-11T04:30:17.412Z,97.53
2022-10-11T04:32:45.421Z,97.38
2022-10-11T04:35:13.824Z,97.45
2022-10-11T04:37:41.978Z,97.51
2022-10-11T04:40:10.841Z,97.53
2022-10-11T04:42:38.914Z,97.59
2022-10-11T04:45:07.460Z,97.64
2022-10-11T04:47:35.772Z,97.67
2022-10-11T04:50:04.666Z,97.64
2022-10-11T04:52:32.824Z,97.58
2022-10-11T04:55:00.910Z,97.52
2022-10-11T04:57:28.960Z,97.53
2022-10-11T04:59:56.951Z,97.49
2022-10-11T05:02:25.126Z,97.47
2022-10-11T05:04:56.085Z,97.50
2022-10-11T05:07:24.225Z,97.51
2022-10-11T05:09:52.338Z,97.54
2022-10-11T05:12:22.656Z,97.50
2022-10-11T05:14:50.850Z,97.30
2022-10-11T05:17:22.078Z,97.22
2022-10-11T05:19:50.450Z,97.36
2022-10-11T05:22:18.683Z,97.25
2022-10-11T05:24:46.754Z,97.33
2022-10-11T05:27:15.125Z,97.34
2022-10-11T05:29:43.201Z,97.41
2022-10-11T05:32:11.232Z,97.37
2022-10-11T05:34:39.321Z,97.37
2022-10-11T05:37:07.345Z,97.43
2022-10-11T05:39:35.374Z,97.32
2022-10-11T05:42:07.657Z,97.19
2022-10-11T05:44:37.679Z,97.24
2022-10-11T05:47:05.812Z,97.14
2022-10-11T05:49:33.821Z,96.93
2022-10-11T05:52:01.818Z,96.83
2022-10-11T05:54:31.146Z,97.03
2022-10-11T05:56:59.205Z,96.98
2022-10-11T05:59:27.649Z,96.91
2022-10-11T06:01:55.854Z,96.90
2022-10-11T06:04:23.796Z,96.87
2022-10-11T06:06:51.780Z,96.86
2022-10-11T06:09:19.738Z,96.85
2022-10-11T06:11:47.851Z,96.79
2022-10-11T06:14:16.028Z,96.87
2022-10-11T06:16:44.039Z,96.96
2022-10-11T06:19:12.102Z,97.00
2022-10-11T06:21:40.605Z,97.13
2022-10-11T06:24:09.402Z,97.05
2022-10-11T06:26:37.553Z,97.14
2022-10-11T06:29:06.060Z,97.16
2022-10-11T06:31:34.447Z,97.00
2022-10-11T06:34:02.419Z,96.95
2022-10-11T06:36:31.301Z,96.85
2022-10-11T06:39:01.498Z,96.73
2022-10-11T06:41:30.949Z,96.59
2022-10-11T06:43:59.105Z,96.38
2022-10-11T06:46:28.801Z,96.24
2022-10-11T06:48:56.926Z,96.25
2022-10-11T06:51:26.036Z,96.05
2022-10-11T06:53:56.970Z,95.73
2022-10-11T06:56:27.217Z,95.61
2022-10-11T06:58:56.522Z,95.35
2022-10-11T07:01:24.844Z,94.96
2022-10-11T07:03:55.374Z,94.67
2022-10-11T07:06:26.622Z,94.55
2022-10-11T07:08:55.204Z,94.54
2022-10-11T07:11:26.697Z,94.38
2022-10-11T07:14:00.335Z,93.99
2022-10-11T07:16:29.211Z,93.55
2022-10-11T07:19:01.201Z,93.52
2022-10-11T07:21:31.400Z,93.13
2022-10-11T07:24:00.318Z,92.80
2022-10-11T07:26:33.789Z,92.56
2022-10-11T07:29:05.244Z,92.31
2022-10-11T07:31:33.518Z,91.77
2022-10-11T07:34:01.518Z,91.55
2022-10-11T07:36:29.702Z,90.20
2022-10-11T07:38:58.098Z,89.43
2022-10-11T07:41:26.108Z,88.86
2022-10-11T07:43:55.195Z,88.48
2022-10-11T07:46:23.173Z,87.19
2022-10-11T07:48:51.266Z,87.06
2022-10-11T07:51:21.933Z,87.04
2022-10-11T07:53:52.799Z,86.56
2022-10-11T07:56:26.913Z,84.23
2022-10-11T07:59:00.732Z,83.98
2022-10-11T08:01:29.133Z,83.05
2022-10-11T08:03:57.804Z,80.66
2022-10-11T08:06:30.730Z,79.93
2022-10-11T08:09:00.691Z,79.28
2022-10-11T08:11:32.538Z,79.50
2022-10-11T08:14:02.385Z,79.09
2022-10-11T08:16:30.445Z,78.10
2022-10-11T08:18:58.861Z,77.49
2022-10-11T08:21:27.155Z,74.18
2022-10-11T08:23:55.185Z,73.85
2022-10-11T08:26:24.199Z,73.16
2022-10-11T08:28:52.501Z,73.71
2022-10-11T08:31:20.978Z,72.80
2022-10-11T08:33:49.043Z,73.53
2022-10-11T08:36:17.053Z,72.57
2022-10-11T08:38:45.040Z,71.99
2022-10-11T08:41:47.699Z,70.56
2022-10-11T08:44:58.216Z,68.59
2022-10-11T08:47:37.967Z,66.95
2022-10-11T08:50:07.137Z,65.08
2022-10-11T08:52:38.109Z,64.71
2022-10-11T08:55:12.624Z,65.25
2022-10-11T08:57:44.170Z,66.50
2022-10-11T09:00:17.208Z,65.92
2022-10-11T09:03:09.006Z,65.95
2022-10-11T09:06:13.959Z,66.02
2022-10-11T09:08:54.189Z,66.88
2022-10-11T09:11:45.782Z,66.91
2022-10-11T09:14:14.033Z,67.10
2022-10-11T09:17:16.701Z,66.92
2022-10-11T09:20:09.748Z,67.62
2022-10-11T09:23:04.990Z,67.33
2022-10-11T09:25:58.988Z,67.65
2022-10-11T09:28:57.403Z,67.19
2022-10-11T09:31:29.761Z,66.74
2022-10-11T09:33:59.637Z,67.29
2022-10-11T09:36:47.207Z,66.87
2022-10-11T09:39:31.889Z,66.28
2022-10-11T09:42:07.020Z,66.53
2022-10-11T09:44:37.913Z,66.38
2022-10-11T09:47:07.232Z,65.94
2022-10-11T09:49:45.009Z,66.32
2022-10-11T09:52:19.792Z,65.90
2022-10-11T09:54:51.810Z,65.85
2022-10-11T09:57:24.388Z,65.36
2022-10-11T10:00:00.496Z,64.78
2022-10-11T10:02:30.933Z,64.67
2022-10-11T10:05:14.174Z,64.59
2022-10-11T10:08:01.608Z,64.37
2022-10-11T10:10:43.529Z,63.41
2022-10-11T10:13:28.871Z,62.97
2022-10-11T10:16:01.358Z,61.29
2022-10-11T10:18:50.497Z,60.58
2022-10-11T10:21:27.829Z,59.88
2022-10-11T10:23:57.834Z,58.14
2022-10-11T10:26:27.232Z,56.46
2022-10-11T10:29:09.868Z,56.29
2022-10-11T10:32:13.018Z,55.68
2022-10-11T10:34:53.231Z,55.89
2022-10-11T10:37:32.899Z,53.94
2022-10-11T10:40:26.101Z,53.85
2022-10-11T10:42:56.524Z,52.37
2022-10-11T10:45:35.675Z,51.86
2022-10-11T10:48:16.085Z,51.71
2022-10-11T10:51:18.171Z,50.77
2022-10-11T10:53:57.462Z,51.65
2022-10-11T10:56:36.131Z,50.46
2022-10-11T10:59:19.934Z,48.69
2022-10-11T11:02:11.091Z,49.24
2022-10-11T11:05:36.487Z,48.10
2022-10-11T11:08:23.263Z,47.98
2022-10-11T11:11:00.158Z,47.09
2022-10-11T11:13:43.553Z,47.52
2022-10-11T11:16:22.277Z,48.47
2022-10-11T11:18:58.413Z,48.42
2022-10-11T11:21:55.643Z,47.95
2022-10-11T11:24:56.681Z,46.73
2022-10-11T11:27:36.691Z,47.06
2022-10-11T11:30:21.915Z,47.70
2022-10-11T11:33:37.240Z,46.82
2022-10-11T11:36:15.029Z,46.97
2022-10-11T11:38:54.002Z,45.98
2022-10-11T11:41:45.366Z,45.95
2022-10-11T11:44:38.113Z,45.01
2022-10-11T11:47:18.086Z,44.98
2022-10-11T11:50:09.774Z,44.36
2022-10-11T11:52:44.081Z,44.66
2022-10-11T11:55:42.513Z,44.20
2022-10-11T11:58:31.802Z,44.62
2022-10-11T12:01:30.251Z,44.58
2022-10-11T12:04:25.730Z,43.42
2022-10-11T12:07:16.260Z,43.97
2022-10-11T12:09:51.771Z,43.91
2022-10-11T12:12:34.154Z,42.66
2022-10-11T12:15:04.472Z,42.64
2022-10-11T12:17:33.939Z,43.66
2022-10-11T12:20:25.452Z,43.30
2022-10-11T12:23:24.685Z,43.05
2022-10-11T12:26:31.063Z,41.79
2022-10-11T12:29:18.369Z,41.10
2022-10-11T12:32:09.234Z,42.03
2022-10-11T12:37:20.195Z,41.28
2022-10-11T17:48:36.502Z,74.18
2022-10-11T17:51:14.071Z,75.06
2022-10-11T17:53:42.640Z,74.82
2022-10-11T17:56:13.860Z,75.76
2022-10-11T17:58:43.129Z,76.07
2022-10-11T18:01:14.462Z,75.61
2022-10-11T18:03:43.719Z,75.76
2022-10-11T18:06:13.761Z,75.61
2022-10-11T18:08:42.084Z,75.86
2022-10-11T18:11:13.073Z,75.67
2022-10-11T18:13:46.179Z,75.93
2022-10-11T18:16:16.471Z,75.98
2022-10-11T18:18:44.771Z,75.77
2022-10-11T18:21:13.514Z,75.63
2022-10-11T18:23:42.345Z,75.93
2022-10-11T18:26:16.672Z,75.61
2022-10-11T18:28:45.970Z,75.76
2022-10-11T18:31:17.957Z,75.54
2022-10-11T18:33:47.366Z,75.61
2022-10-11T18:36:17.194Z,76.07
2022-10-11T18:38:46.445Z,76.46
2022-10-11T18:41:17.471Z,76.16
2022-10-11T18:43:54.663Z,76.30
2022-10-11T18:46:26.600Z,76.54
2022-10-11T18:48:56.976Z,76.67
2022-10-11T18:51:27.971Z,77.00
2022-10-11T18:53:58.484Z,77.19
2022-10-11T18:56:28.356Z,77.11
2022-10-11T18:58:57.702Z,77.02
2022-10-11T19:01:34.013Z,77.26
2022-10-11T19:04:03.120Z,77.49
2022-10-11T19:06:35.402Z,77.81
2022-10-11T19:09:21.617Z,77.75
2022-10-11T19:11:51.993Z,77.70
2022-10-11T19:14:25.654Z,77.73
2022-10-11T19:16:54.949Z,79.10
2022-10-11T19:19:26.259Z,79.35
2022-10-11T19:21:54.385Z,79.04
2022-10-11T19:24:25.962Z,79.23
2022-10-11T19:26:58.424Z,79.36
2022-10-11T19:29:29.805Z,79.77
2022-10-11T19:32:00.661Z,80.16
2022-10-11T19:34:30.107Z,79.59
2022-10-11T19:37:00.879Z,79.57
2022-10-11T19:39:29.872Z,79.52
2022-10-11T19:41:57.976Z,79.66
2022-10-11T19:44:26.080Z,80.51
2022-10-11T19:46:54.188Z,80.16
2022-10-11T19:49:26.052Z,80.09
2022-10-11T19:51:55.696Z,80.34
2022-10-11T19:54:24.281Z,80.35
2022-10-11T19:56:52.713Z,80.63
2022-10-11T19:59:20.833Z,80.61
2022-10-11T20:01:52.693Z,80.74
2022-10-11T20:04:50.611Z,80.63
2022-10-11T20:07:10.785Z,80.71
2022-10-11T20:09:39.041Z,80.68
2022-10-11T20:12:07.477Z,80.59
2022-10-11T20:14:36.372Z,80.38
2022-10-11T20:17:04.411Z,80.63
2022-10-11T20:19:32.780Z,80.62
2022-10-11T20:22:01.779Z,80.72
2022-10-11T20:24:33.693Z,80.65
2022-10-11T20:27:03.684Z,80.49
2022-10-11T20:29:32.514Z,80.93
2022-10-11T20:32:00.569Z,80.73
2022-10-11T20:34:28.887Z,81.12
2022-10-11T20:36:57.129Z,81.31
2022-10-11T20:39:25.519Z,81.28
2022-10-11T20:41:53.698Z,81.31
2022-10-11T20:44:21.823Z,81.25
2022-10-11T20:46:50.232Z,81.67
2022-10-11T20:49:19.979Z,81.94
2022-10-11T20:51:49.038Z,81.94
2022-10-11T20:54:17.371Z,82.17
2022-10-11T20:56:45.654Z,82.17
2022-10-11T20:59:13.951Z,82.45
2022-10-11T21:01:42.831Z,82.42
2022-10-11T21:04:20.813Z,82.39
2022-10-11T21:06:49.242Z,82.76
2022-10-11T21:09:17.805Z,83.08
2022-10-11T21:11:46.467Z,83.20
2022-10-11T21:14:14.976Z,83.44
2022-10-11T21:16:43.241Z,83.90
2022-10-11T21:19:15.167Z,84.47
2022-10-11T21:21:46.438Z,84.17
2022-10-11T21:24:16.662Z,84.81
2022-10-11T21:26:44.677Z,84.65
2022-10-11T21:29:13.364Z,84.11
2022-10-11T21:31:41.416Z,84.14
2022-10-11T21:34:09.896Z,84.22
2022-10-11T21:36:38.619Z,84.45
2022-10-11T21:39:06.817Z,84.55
2022-10-11T21:41:35.097Z,84.13
2022-10-11T21:44:03.222Z,84.15
2022-10-11T21:47:01.328Z,84.50
2022-10-11T21:49:20.307Z,84.84
2022-10-11T21:51:48.336Z,84.67
2022-10-11T21:54:17.341Z,84.65
2022-10-11T21:56:45.366Z,84.98
2022-10-11T21:59:14.040Z,84.89
2022-10-11T22:01:43.826Z,85.45
2022-10-11T22:04:12.112Z,85.46
2022-10-11T22:06:40.518Z,85.47
2022-10-11T22:09:09.407Z,85.41
2022-10-11T22:11:37.827Z,85.35
2022-10-11T22:14:06.010Z,85.54
2022-10-11T22:16:36.203Z,85.67
2022-10-11T22:19:04.616Z,85.83
2022-10-11T22:21:32.664Z,86.00
2022-10-11T22:24:00.929Z,86.23
2022-10-11T22:26:31.228Z,86.20
2022-10-11T22:29:00.419Z,86.34
2022-10-11T22:31:29.988Z,86.21
2022-10-11T22:34:00.439Z,86.07
2022-10-11T22:36:33.954Z,86.31
2022-10-11T22:39:07.802Z,86.23
2022-10-11T22:41:36.096Z,86.00
2022-10-11T22:44:05.141Z,85.73
2022-10-11T22:46:35.523Z,85.82
2022-10-11T22:49:03.729Z,86.28
2022-10-11T22:51:35.937Z,86.32
2022-10-11T22:54:03.946Z,87.09
2022-10-11T22:56:32.137Z,87.34
2022-10-11T22:59:00.237Z,87.52
2022-10-11T23:01:28.352Z,87.85
2022-10-11T23:03:56.635Z,87.98
2022-10-11T23:06:24.640Z,87.60
2022-10-11T23:08:52.585Z,87.38
2022-10-11T23:11:20.555Z,87.01
2022-10-11T23:13:48.664Z,87.48
2022-10-11T23:16:16.859Z,87.68
2022-10-11T23:18:44.906Z,88.02
2022-10-11T23:21:13.365Z,88.08
2022-10-11T23:23:41.428Z,88.25
2022-10-11T23:26:13.858Z,88.36
2022-10-11T23:28:42.388Z,88.19
2022-10-11T23:31:14.123Z,88.32
2022-10-11T23:33:43.398Z,88.30
2022-10-11T23:36:20.355Z,88.17
2022-10-11T23:38:59.227Z,88.30
2022-10-11T23:41:29.368Z,88.02
2022-10-11T23:43:58.666Z,88.18
2022-10-11T23:46:26.669Z,88.20
2022-10-11T23:48:54.734Z,88.19
2022-10-11T23:51:22.835Z,88.17
2022-10-11T23:53:50.738Z,87.69
2022-10-11T23:56:18.691Z,87.78
2022-10-11T23:58:46.670Z,87.47
